Time;durP1;ratioP1;P1;durP2;ratioP2;P2;SDS_P1;SDS_P2;PMS_P1;PMS_P2;Temp;Humidity;BMP_temperature;BMP_pressure;BME280_temperature;BME280_humidity;BME280_pressure;Samples;Min_cycle;Max_cycle;Signal;HPM_P1;HPM_P2
2024/03/21 00:00:30;;;;;;;9.02;3.92;;;;;;;7.65;100.00;99072.41;5061545;28;20044;-77
2024/03/21 00:02:56;;;;;;;7.80;4.22;;;;;;;7.85;100.00;99069.22;5084968;28;20355;-77
2024/03/21 00:05:21;;;;;;;7.20;4.43;;;;;;;7.76;100.00;99041.53;5089409;28;20070;-77
2024/03/21 00:07:48;;;;;;;7.40;4.07;;;;;;;7.73;100.00;99041.03;5072516;28;20027;-76
2024/03/21 00:10:15;;;;;;;7.55;4.03;;;;;;;7.80;100.00;99058.16;5083297;28;20022;-77
2024/03/21 00:12:41;;;;;;;9.15;4.35;;;;;;;7.75;100.00;99044.38;5065801;28;20024;-77
2024/03/21 00:15:10;;;;;;;6.68;4.15;;;;;;;7.63;100.00;99044.81;5074976;28;20023;-77
2024/03/21 00:17:36;;;;;;;9.55;4.70;;;;;;;7.54;100.00;99048.56;5072028;28;20336;-77
2024/03/21 00:20:09;;;;;;;7.25;4.47;;;;;;;7.46;100.00;99043.22;5071029;28;20025;-76
2024/03/21 00:22:35;;;;;;;8.15;4.88;;;;;;;7.46;100.00;99035.16;5069914;28;20028;-76
2024/03/21 00:25:00;;;;;;;10.98;5.50;;;;;;;7.57;100.00;99055.44;5074555;28;20029;-77
2024/03/21 00:27:25;;;;;;;10.13;5.13;;;;;;;7.51;100.00;99038.16;5068766;28;20036;-77
2024/03/21 00:29:51;;;;;;;8.48;4.80;;;;;;;7.60;100.00;99049.72;5072957;28;20024;-77
2024/03/21 00:32:16;;;;;;;8.77;5.20;;;;;;;7.58;100.00;99032.91;5077156;28;20028;-76
2024/03/21 00:34:42;;;;;;;10.48;5.15;;;;;;;7.68;100.00;99039.72;5069066;28;20070;-78
2024/03/21 00:37:07;;;;;;;9.10;4.50;;;;;;;7.54;100.00;99034.25;5066596;28;20223;-78
2024/03/21 00:39:33;;;;;;;6.97;4.55;;;;;;;7.53;100.00;99033.44;5070831;28;20044;-77
2024/03/21 00:41:58;;;;;;;8.70;4.93;;;;;;;7.47;100.00;99024.22;5078737;28;20030;-78
2024/03/21 00:44:24;;;;;;;8.32;4.70;;;;;;;7.45;100.00;99009.25;5070981;28;20024;-78
2024/03/21 00:46:49;;;;;;;7.65;4.38;;;;;;;7.65;100.00;99037.41;5070654;28;20016;-78
2024/03/21 00:49:16;;;;;;;7.70;4.60;;;;;;;7.47;100.00;99001.84;5066788;28;20051;-77
2024/03/21 00:51:41;;;;;;;8.00;4.75;;;;;;;7.64;100.00;99022.22;5073090;28;20330;-78
2024/03/21 00:54:07;;;;;;;9.68;4.25;;;;;;;7.57;100.00;98980.03;5081213;28;20028;-77
2024/03/21 00:56:32;;;;;;;7.85;4.70;;;;;;;7.89;100.00;99030.16;5064895;28;20012;-77
2024/03/21 00:58:58;;;;;;;7.20;4.15;;;;;;;7.91;100.00;99025.41;5070973;28;20016;-78
2024/03/21 01:01:25;;;;;;;6.95;3.95;;;;;;;7.84;100.00;99028.00;5072778;28;20024;-78
2024/03/21 01:03:50;;;;;;;9.32;4.82;;;;;;;7.83;100.00;99010.16;5066913;28;20227;-78
2024/03/21 01:06:16;;;;;;;6.65;3.95;;;;;;;7.81;100.00;99003.28;5073765;28;20020;-78
2024/03/21 01:08:42;;;;;;;7.70;4.30;;;;;;;7.87;100.00;99018.72;5060420;28;20150;-77
2024/03/21 01:11:09;;;;;;;8.63;4.47;;;;;;;7.74;100.00;99002.31;5076630;28;20055;-79
2024/03/21 01:13:34;;;;;;;5.07;3.58;;;;;;;7.76;100.00;99001.13;5069368;28;20020;-78
2024/03/21 01:15:59;;;;;;;8.00;4.53;;;;;;;7.70;100.00;99001.81;5070775;28;20079;-78
2024/03/21 01:18:34;;;;;;;7.45;4.05;;;;;;;7.69;100.00;99005.53;5075590;28;20036;-78
2024/03/21 01:21:01;;;;;;;9.75;4.18;;;;;;;7.78;100.00;99022.47;5078771;28;20087;-78
2024/03/21 01:23:27;;;;;;;9.23;4.63;;;;;;;7.66;100.00;99005.91;5068200;28;20357;-77
2024/03/21 01:25:52;;;;;;;7.47;4.10;;;;;;;7.72;100.00;99001.66;5066939;28;20271;-77
2024/03/21 01:28:17;;;;;;;6.03;3.88;;;;;;;7.70;100.00;98993.75;5070891;28;20090;-77
2024/03/21 01:30:42;;;;;;;8.65;4.38;;;;;;;7.67;100.00;98984.16;5062956;28;20031;-78
2024/03/21 01:33:08;;;;;;;9.48;4.45;;;;;;;7.63;100.00;99007.09;5065369;28;20052;-77
2024/03/21 01:35:34;;;;;;;8.77;4.63;;;;;;;7.49;100.00;98994.41;5074747;28;20021;-77
2024/03/21 01:38:00;;;;;;;8.65;4.35;;;;;;;7.43;100.00;98997.81;5082970;28;20023;-77
2024/03/21 01:40:25;;;;;;;9.05;5.13;;;;;;;7.19;100.00;98996.13;5070298;28;20315;-78
2024/03/21 01:42:51;;;;;;;9.25;5.05;;;;;;;7.23;100.00;99006.38;5063323;28;20027;-78
2024/03/21 01:45:18;;;;;;;10.45;4.75;;;;;;;7.19;100.00;99001.50;5065592;28;20020;-77
2024/03/21 01:47:44;;;;;;;8.52;4.72;;;;;;;7.11;100.00;99002.38;5066892;28;20020;-77
2024/03/21 01:50:09;;;;;;;8.30;4.80;;;;;;;7.11;100.00;99018.53;5069983;28;20053;-77
2024/03/21 01:52:36;;;;;;;7.95;4.53;;;;;;;7.00;100.00;98997.41;5068060;28;20021;-78
2024/03/21 01:55:04;;;;;;;6.88;4.03;;;;;;;6.98;100.00;99012.88;5067454;28;20067;-77
2024/03/21 01:57:31;;;;;;;11.55;4.68;;;;;;;6.81;100.00;98985.19;5065478;28;20197;-77
2024/03/21 01:59:58;;;;;;;11.35;5.05;;;;;;;7.02;100.00;99003.44;5062305;28;20012;-77
2024/03/21 02:02:24;;;;;;;9.95;4.90;;;;;;;6.98;100.00;98999.44;5063771;28;20031;-78
2024/03/21 02:04:50;;;;;;;13.48;5.13;;;;;;;7.04;100.00;99012.16;5061910;28;20324;-78
2024/03/21 02:07:18;;;;;;;8.35;4.45;;;;;;;6.98;100.00;98997.56;5101565;28;20097;-77
2024/03/21 02:09:49;;;;;;;8.18;4.35;;;;;;;7.08;100.00;99013.50;5069898;28;20028;-78
2024/03/21 02:12:34;;;;;;;10.40;4.90;;;;;;;7.17;100.00;99022.38;5066805;28;20063;-78
2024/03/21 02:15:00;;;;;;;8.98;4.70;;;;;;;7.02;100.00;99003.44;5064143;28;20383;-78
2024/03/21 02:17:26;;;;;;;8.15;4.35;;;;;;;7.02;100.00;99004.28;5064287;28;20252;-78
2024/03/21 02:19:51;;;;;;;14.63;4.80;;;;;;;7.11;100.00;99029.28;5070809;28;20047;-78
2024/03/21 02:25:00;;;;;;;12.73;4.82;;;;;;;7.00;100.00;99019.75;5083566;28;20027;-77
2024/03/21 02:27:25;;;;;;;8.70;4.32;;;;;;;7.17;100.00;99038.50;5067533;28;20095;-76
2024/03/21 02:29:52;;;;;;;7.13;4.05;;;;;;;7.01;100.00;99016.03;5078071;28;20323;-77
2024/03/21 02:32:17;;;;;;;8.68;5.30;;;;;;;7.21;100.00;99035.28;5075042;28;20021;-77
2024/03/21 02:34:42;;;;;;;10.80;4.38;;;;;;;7.14;100.00;99010.09;5067439;28;20020;-77
2024/03/21 02:37:08;;;;;;;8.48;4.47;;;;;;;7.23;100.00;99010.88;5066689;28;20024;-77
2024/03/21 02:39:33;;;;;;;7.68;4.55;;;;;;;7.32;100.00;99009.84;5073483;28;20016;-77
2024/03/21 02:41:59;;;;;;;6.55;4.05;;;;;;;7.29;100.00;99006.66;5066183;28;20216;-77
2024/03/21 02:44:25;;;;;;;6.70;4.10;;;;;;;7.46;100.00;99024.38;5070396;28;20065;-77
2024/03/21 02:46:50;;;;;;;8.20;4.45;;;;;;;7.50;100.00;99031.09;5070564;28;20054;-77
2024/03/21 02:49:15;;;;;;;9.23;4.60;;;;;;;7.56;100.00;99013.38;5062557;28;21100;-77
2024/03/21 02:51:40;;;;;;;6.78;4.28;;;;;;;7.67;100.00;99016.47;5061213;28;20029;-76
2024/03/21 02:54:06;;;;;;;7.05;4.07;;;;;;;7.53;100.00;98993.03;5068207;28;20034;-77
2024/03/21 02:56:32;;;;;;;8.73;4.05;;;;;;;7.66;100.00;99025.59;5071172;28;20108;-77
2024/03/21 02:58:59;;;;;;;11.65;4.65;;;;;;;7.61;100.00;99019.91;5064636;28;20017;-76
2024/03/21 03:01:25;;;;;;;6.80;4.53;;;;;;;7.69;100.00;99038.69;5077153;28;20065;-76
2024/03/21 03:03:50;;;;;;;9.27;4.50;;;;;;;7.58;100.00;99030.22;5061103;28;20197;-76
2024/03/21 03:06:20;;;;;;;9.55;4.20;;;;;;;7.58;100.00;99022.13;5062936;28;20067;-77
2024/03/21 03:08:45;;;;;;;6.47;3.88;;;;;;;7.65;100.00;99040.09;5078586;28;20088;-76
2024/03/21 03:11:10;;;;;;;6.20;3.90;;;;;;;7.69;100.00;99044.09;5080983;28;20022;-77
2024/03/21 03:13:35;;;;;;;8.43;4.40;;;;;;;7.55;100.00;99022.50;5068327;28;20027;-76
2024/03/21 03:16:01;;;;;;;10.77;3.90;;;;;;;7.62;100.00;99034.19;5070648;28;20267;-77
2024/03/21 03:18:26;;;;;;;4.63;3.42;;;;;;;7.59;100.00;99043.47;5070723;28;20099;-76
2024/03/21 03:20:51;;;;;;;5.50;2.72;;;;;;;7.40;100.00;99034.00;5065218;28;20017;-77
2024/03/21 03:23:16;;;;;;;5.82;2.85;;;;;;;7.47;100.00;99047.59;5068885;28;20024;-77
2024/03/21 03:25:42;;;;;;;4.60;2.72;;;;;;;7.51;100.00;99083.91;5084337;28;20021;-77
2024/03/21 03:28:07;;;;;;;7.25;3.00;;;;;;;7.34;100.00;99060.81;5065171;28;20016;-77
2024/03/21 03:30:34;;;;;;;5.68;2.95;;;;;;;7.36;100.00;99061.44;5063960;28;20017;-77
2024/03/21 03:33:06;;;;;;;4.75;2.97;;;;;;;7.46;100.00;99067.44;5069199;28;20219;-77
2024/03/21 03:35:39;;;;;;;5.53;2.95;;;;;;;7.53;100.00;99059.53;5068776;28;20323;-77
2024/03/21 03:38:05;;;;;;;6.03;3.10;;;;;;;7.63;100.00;99063.66;5073202;28;20032;-76
2024/03/21 03:40:30;;;;;;;5.65;3.08;;;;;;;7.54;100.00;99048.56;5063198;28;20020;-76
2024/03/21 03:42:55;;;;;;;6.60;3.17;;;;;;;7.40;100.00;99033.19;5075527;28;20196;-76
2024/03/21 03:45:21;;;;;;;9.63;3.25;;;;;;;7.48;100.00;99054.66;5060577;28;20048;-76
2024/03/21 03:47:46;;;;;;;4.38;2.97;;;;;;;7.45;100.00;99063.09;5066954;28;20021;-76
2024/03/21 03:50:12;;;;;;;12.07;3.35;;;;;;;7.44;100.00;99072.16;5075226;28;20332;-77
2024/03/21 03:52:37;;;;;;;5.78;3.28;;;;;;;7.37;100.00;99049.69;5072123;28;20024;-76
2024/03/21 03:55:03;;;;;;;7.68;3.65;;;;;;;7.52;100.00;99064.06;5069108;28;20132;-77
2024/03/21 03:57:28;;;;;;;7.03;3.30;;;;;;;7.58;100.00;99060.66;5067636;28;20026;-78
2024/03/21 03:59:54;;;;;;;6.18;3.28;;;;;;;7.64;100.00;99075.25;5065035;28;20196;-79
2024/03/21 04:02:21;;;;;;;6.80;3.33;;;;;;;7.62;100.00;99072.75;5062476;28;20041;-77
2024/03/21 04:04:46;;;;;;;6.70;2.90;;;;;;;7.55;100.00;99057.50;5068421;28;20024;-80
2024/03/21 04:07:12;;;;;;;6.28;3.20;;;;;;;7.61;100.00;99073.75;5072379;22;20128;-58
2024/03/21 04:09:37;;;;;;;7.95;3.47;;;;;;;7.54;100.00;99077.34;5041608;28;20115;-59
2024/03/21 04:12:03;;;;;;;9.57;3.88;;;;;;;7.59;100.00;99081.16;5040765;28;20037;-59
2024/03/21 04:14:28;;;;;;;11.32;4.15;;;;;;;7.51;100.00;99073.16;5040883;28;20044;-59
2024/03/21 04:16:53;;;;;;;10.07;3.50;;;;;;;7.48;100.00;99084.28;5033299;28;20038;-59
2024/03/21 04:19:19;;;;;;;11.25;3.60;;;;;;;7.49;100.00;99087.78;5028493;28;20033;-59
2024/03/21 04:21:44;;;;;;;9.55;3.58;;;;;;;7.40;100.00;99081.63;5032141;28;20036;-59
2024/03/21 04:24:09;;;;;;;7.63;4.07;;;;;;;7.43;100.00;99092.03;5030486;28;20120;-59
2024/03/21 04:26:35;;;;;;;4.78;3.05;;;;;;;7.33;100.00;99086.03;5024150;28;20034;-59
2024/03/21 04:29:00;;;;;;;7.78;3.65;;;;;;;7.31;100.00;99093.44;5028612;28;20116;-59
2024/03/21 04:31:26;;;;;;;7.68;3.67;;;;;;;7.23;100.00;99081.72;5036949;28;20080;-59
2024/03/21 04:33:51;;;;;;;11.43;4.15;;;;;;;7.25;100.00;99090.44;5034839;28;20469;-59
2024/03/21 04:36:16;;;;;;;9.65;4.22;;;;;;;7.19;100.00;99096.50;5034520;28;20037;-59
2024/03/21 04:38:42;;;;;;;5.68;3.78;;;;;;;7.15;100.00;99100.59;5024481;28;20080;-59
2024/03/21 04:41:07;;;;;;;6.40;4.10;;;;;;;7.18;100.00;99105.63;5035816;28;20086;-59
2024/03/21 04:43:33;;;;;;;11.30;4.20;;;;;;;7.12;100.00;99111.66;5038230;28;20112;-59
2024/03/21 04:45:59;;;;;;;7.03;4.00;;;;;;;7.11;100.00;99115.38;5026356;28;20422;-59
2024/03/21 04:48:25;;;;;;;8.48;3.72;;;;;;;7.06;100.00;99115.06;5026215;28;20053;-59
2024/03/21 04:50:50;;;;;;;5.85;3.47;;;;;;;6.99;100.00;99111.38;5029955;28;20045;-59
2024/03/21 04:53:15;;;;;;;8.90;4.20;;;;;;;6.99;100.00;99119.44;5026656;28;20056;-59
2024/03/21 04:55:41;;;;;;;6.70;4.07;;;;;;;6.96;100.00;99127.88;5019658;28;20033;-59
2024/03/21 04:58:06;;;;;;;7.43;4.45;;;;;;;7.01;100.00;99129.03;5023871;28;20030;-59
2024/03/21 05:00:32;;;;;;;8.38;4.47;;;;;;;7.08;100.00;99131.88;5020283;28;20060;-59
2024/03/21 05:02:57;;;;;;;8.40;4.25;;;;;;;6.92;100.00;99127.38;5030720;28;20400;-59
2024/03/21 05:05:22;;;;;;;6.85;4.00;;;;;;;6.86;100.00;99121.84;5027577;28;20025;-59
2024/03/21 05:07:48;;;;;;;7.70;3.90;;;;;;;6.83;100.00;99130.25;5035597;28;20029;-58
2024/03/21 05:10:13;;;;;;;10.70;4.88;;;;;;;6.79;100.00;99133.28;5033060;28;20025;-59
2024/03/21 05:12:39;;;;;;;12.80;4.93;;;;;;;6.75;100.00;99129.25;5029991;28;20022;-59
2024/03/21 05:15:05;;;;;;;8.35;4.18;;;;;;;6.86;100.00;99132.59;5016315;28;20179;-59
2024/03/21 05:17:30;;;;;;;8.95;4.18;;;;;;;6.88;100.00;99126.03;5025171;28;20486;-58
2024/03/21 05:19:55;;;;;;;9.00;3.67;;;;;;;6.85;100.00;99120.19;5040959;28;20104;-59
2024/03/21 05:22:21;;;;;;;7.95;4.30;;;;;;;6.88;100.00;99120.66;5032748;28;20032;-58
2024/03/21 05:24:46;;;;;;;7.97;4.40;;;;;;;6.95;100.00;99128.91;5033936;28;20041;-58
2024/03/21 05:27:15;;;;;;;4.88;3.53;;;;;;;7.03;100.00;99126.19;5029703;28;20021;-58
2024/03/21 05:29:41;;;;;;;8.18;4.60;;;;;;;7.03;100.00;99120.81;5038454;28;20022;-58
2024/03/21 05:32:08;;;;;;;6.53;3.90;;;;;;;7.06;100.00;99125.81;5026971;28;20466;-58
2024/03/21 05:34:34;;;;;;;7.55;4.32;;;;;;;7.14;100.00;99125.78;5037854;28;20037;-58
2024/03/21 05:36:59;;;;;;;5.68;4.03;;;;;;;7.20;100.00;99127.81;5027683;28;20049;-59
2024/03/21 05:39:25;;;;;;;10.10;4.43;;;;;;;7.25;100.00;99122.72;5037353;28;20033;-58
2024/03/21 05:41:51;;;;;;;9.90;4.82;;;;;;;7.33;100.00;99129.91;5036314;28;20369;-58
2024/03/21 05:44:17;;;;;;;8.32;4.50;;;;;;;7.40;100.00;99117.44;5033790;28;20024;-58
2024/03/21 05:46:43;;;;;;;10.13;4.20;;;;;;;7.47;100.00;99114.91;5027798;28;20067;-58
2024/03/21 05:49:13;;;;;;;6.38;4.18;;;;;;;7.56;100.00;99113.84;5034066;28;20037;-58
2024/03/21 05:51:38;;;;;;;11.18;4.82;;;;;;;7.64;100.00;99116.47;5030660;28;20034;-58
2024/03/21 05:54:06;;;;;;;7.97;4.18;;;;;;;7.88;100.00;99117.34;5033225;28;20528;-58
2024/03/21 05:56:35;;;;;;;12.35;4.32;;;;;;;7.99;100.00;99114.28;5022824;28;20373;-58
2024/03/21 05:59:00;;;;;;;6.68;3.70;;;;;;;8.22;100.00;99118.81;5029872;28;20033;-58
2024/03/21 06:01:32;;;;;;;8.27;3.83;;;;;;;8.35;100.00;99117.16;5029617;28;20040;-58
2024/03/21 06:03:58;;;;;;;12.35;4.20;;;;;;;8.38;100.00;99120.53;5032491;28;20026;-58
2024/03/21 06:06:23;;;;;;;6.82;3.97;;;;;;;8.50;100.00;99114.56;5033698;28;20071;-58
2024/03/21 06:08:48;;;;;;;6.03;3.47;;;;;;;8.63;100.00;99116.63;5025924;28;20057;-58
2024/03/21 06:11:14;;;;;;;8.50;3.90;;;;;;;8.73;100.00;99117.22;5036408;28;20036;-58
2024/03/21 06:13:39;;;;;;;8.38;3.92;;;;;;;8.65;100.00;99109.19;5030625;28;20029;-58
2024/03/21 06:16:05;;;;;;;6.53;3.85;;;;;;;8.73;100.00;99110.97;5032991;28;20033;-59
2024/03/21 06:18:31;;;;;;;7.65;3.90;;;;;;;8.74;100.00;99120.75;5034368;28;20029;-59
2024/03/21 06:20:57;;;;;;;9.20;4.28;;;;;;;8.80;100.00;99122.69;5015723;28;20029;-59
2024/03/21 06:23:22;;;;;;;11.63;5.15;;;;;;;8.75;100.00;99134.06;5015965;28;20429;-59
2024/03/21 06:25:48;;;;;;;13.63;4.78;;;;;;;8.60;100.00;99132.34;5020019;28;20029;-59
2024/03/21 06:28:13;;;;;;;13.55;5.00;;;;;;;8.69;100.00;99144.72;5017981;28;20025;-59
2024/03/21 06:30:39;;;;;;;7.90;4.32;;;;;;;8.73;100.00;99154.13;5023761;28;20164;-59
2024/03/21 06:33:05;;;;;;;13.85;4.70;;;;;;;8.78;100.00;99151.72;5035402;28;20381;-59
2024/03/21 06:35:30;;;;;;;12.27;4.43;;;;;;;8.83;100.00;99154.72;5032945;28;20043;-59
2024/03/21 06:37:57;;;;;;;9.85;4.38;;;;;;;8.94;100.00;99156.97;5025894;28;20033;-59
2024/03/21 06:40:24;;;;;;;8.02;4.28;;;;;;;9.00;100.00;99166.19;5024105;28;20126;-60
2024/03/21 06:42:50;;;;;;;6.85;3.53;;;;;;;9.21;100.00;99176.25;5023596;28;20024;-59
2024/03/21 06:45:16;;;;;;;7.47;3.83;;;;;;;9.18;100.00;99184.72;5021950;28;20040;-58
2024/03/21 06:47:44;;;;;;;6.60;3.35;;;;;;;9.22;100.00;99183.31;5016971;28;20029;-59
2024/03/21 06:50:16;;;;;;;5.80;3.83;;;;;;;9.28;100.00;99188.00;5027703;28;20099;-56
2024/03/21 06:52:44;;;;;;;7.38;3.85;;;;;;;9.25;100.00;99187.50;5033389;28;20033;-56
2024/03/21 06:55:13;;;;;;;11.43;3.50;;;;;;;9.28;100.00;99184.47;5024428;28;20018;-57
2024/03/21 06:57:43;;;;;;;13.57;3.40;;;;;;;9.34;100.00;99189.09;5027687;28;20417;-57
2024/03/21 07:00:12;;;;;;;12.82;3.53;;;;;;;9.39;100.00;99186.69;5019280;28;20482;-56
2024/03/21 07:02:37;;;;;;;8.63;3.20;;;;;;;9.39;100.00;99192.91;5016954;28;20056;-56
2024/03/21 07:05:03;;;;;;;10.38;3.25;;;;;;;9.57;100.00;99189.00;5017605;28;20069;-56
2024/03/21 07:07:28;;;;;;;8.27;3.47;;;;;;;9.65;100.00;99175.41;5013326;28;20045;-56
2024/03/21 07:09:54;;;;;;;8.80;3.72;;;;;;;9.98;100.00;99183.06;5013893;28;20025;-56
2024/03/21 07:12:19;;;;;;;8.15;3.45;;;;;;;10.09;100.00;99177.19;5016483;28;20462;-56
2024/03/21 07:14:45;;;;;;;9.25;3.67;;;;;;;10.45;100.00;99173.59;5021255;28;20215;-57
2024/03/21 07:17:10;;;;;;;9.10;3.15;;;;;;;10.92;100.00;99182.97;5034910;28;20107;-59
2024/03/21 07:19:36;;;;;;;5.93;3.20;;;;;;;11.57;100.00;99176.31;5030084;28;20026;-59
2024/03/21 07:22:03;;;;;;;6.88;3.00;;;;;;;11.92;100.00;99176.31;5035881;28;20048;-60
2024/03/21 07:24:29;;;;;;;10.75;3.10;;;;;;;12.12;100.00;99173.66;5028615;28;20021;-60
2024/03/21 07:26:54;;;;;;;7.57;3.28;;;;;;;12.15;100.00;99172.41;5031732;28;20021;-60
2024/03/21 07:29:22;;;;;;;6.47;2.85;;;;;;;12.72;100.00;99169.16;5023830;28;20029;-59
2024/03/21 07:31:47;;;;;;;8.27;3.20;;;;;;;13.22;100.00;99182.28;5032566;28;20480;-60
2024/03/21 07:34:13;;;;;;;5.03;2.83;;;;;;;13.71;100.00;99178.25;5034198;28;20040;-60
2024/03/21 07:36:38;;;;;;;6.20;3.03;;;;;;;14.09;100.00;99179.31;5033127;28;20056;-60
2024/03/21 07:39:05;;;;;;;6.05;3.30;;;;;;;14.57;100.00;99187.06;5021008;28;20056;-60
2024/03/21 07:41:31;;;;;;;6.30;2.88;;;;;;;14.94;100.00;99171.69;5032845;28;20477;-60
2024/03/21 07:43:57;;;;;;;7.35;3.60;;;;;;;14.88;100.00;99172.53;5040441;28;20116;-61
2024/03/21 07:46:23;;;;;;;9.00;3.65;;;;;;;13.95;100.00;99176.69;5040197;28;20017;-61
2024/03/21 07:48:50;;;;;;;6.70;3.28;;;;;;;14.19;100.00;99177.81;5028759;28;20128;-60
2024/03/21 07:51:16;;;;;;;7.72;3.80;;;;;;;14.52;100.00;99176.78;5026745;28;20031;-61
2024/03/21 07:53:41;;;;;;;8.88;3.22;;;;;;;14.34;100.00;99184.84;5036807;28;20112;-60
2024/03/21 07:56:06;;;;;;;6.88;3.70;;;;;;;14.65;100.00;99184.91;5031059;28;20101;-60
2024/03/21 07:58:33;;;;;;;8.38;4.10;;;;;;;14.69;100.00;99175.22;5032551;28;20359;-60
2024/03/21 08:00:58;;;;;;;14.48;5.03;;;;;;;14.16;100.00;99180.97;5019752;28;20045;-59
2024/03/21 08:03:25;;;;;;;12.18;4.30;;;;;;;14.51;100.00;99191.44;5021533;28;20457;-60
2024/03/21 08:05:51;;;;;;;14.65;5.53;;;;;;;15.13;100.00;99192.47;5032310;28;20435;-60
2024/03/21 08:08:17;;;;;;;11.70;5.82;;;;;;;16.33;100.00;99190.31;5044088;28;20047;-61
2024/03/21 08:10:43;;;;;;;20.83;8.20;;;;;;;15.93;100.00;99183.47;5034517;28;20468;-60
2024/03/21 08:13:08;;;;;;;15.98;6.53;;;;;;;15.91;100.00;99193.78;5032796;28;20044;-61
2024/03/21 08:15:34;;;;;;;16.63;6.68;;;;;;;16.36;100.00;99207.06;5023387;28;20473;-60
2024/03/21 08:17:59;;;;;;;16.55;5.97;;;;;;;16.14;100.00;99206.72;5023186;28;20504;-66
2024/03/21 08:20:24;;;;;;;16.08;4.32;;;;;;;15.69;100.00;99212.50;5035426;28;20022;-63
2024/03/21 08:22:50;;;;;;;13.73;4.65;;;;;;;15.41;100.00;99209.41;5033728;28;20457;-65
2024/03/21 08:25:15;;;;;;;11.18;3.88;;;;;;;15.21;100.00;99215.03;5026692;28;20033;-66
2024/03/21 08:27:42;;;;;;;11.43;4.40;;;;;;;14.85;100.00;99205.69;5031474;28;20049;-67
2024/03/21 08:30:08;;;;;;;10.38;4.43;;;;;;;14.61;100.00;99221.78;5029529;28;20500;-66
2024/03/21 08:32:33;;;;;;;5.68;3.75;;;;;;;14.45;100.00;99220.38;5033565;28;20037;-65
2024/03/21 08:34:58;;;;;;;10.38;4.43;;;;;;;14.31;100.00;99228.84;5034178;28;20026;-66
2024/03/21 08:37:24;;;;;;;12.77;5.15;;;;;;;14.15;100.00;99238.34;5033447;28;20068;-66
2024/03/21 08:39:50;;;;;;;13.27;4.80;;;;;;;14.10;100.00;99241.72;5033876;28;20112;-66
2024/03/21 08:42:15;;;;;;;11.38;4.22;;;;;;;14.14;100.00;99248.38;5032786;28;20409;-66
2024/03/21 08:44:41;;;;;;;10.27;3.88;;;;;;;14.42;100.00;99247.22;5032546;28;20033;-65
2024/03/21 08:47:06;;;;;;;13.20;4.18;;;;;;;14.72;100.00;99238.47;5032916;28;20043;-65
2024/03/21 08:49:32;;;;;;;10.80;3.80;;;;;;;15.86;100.00;99250.09;5036126;28;20053;-65
2024/03/21 08:51:57;;;;;;;7.70;3.65;;;;;;;17.79;100.00;99249.97;5033957;28;20028;-66
2024/03/21 08:54:24;;;;;;;12.20;3.58;;;;;;;19.45;100.00;99240.88;5028371;28;20098;-66
2024/03/21 08:56:51;;;;;;;7.22;3.15;;;;;;;18.90;100.00;99242.44;5024309;28;20071;-66
2024/03/21 08:59:16;;;;;;;7.78;3.95;;;;;;;21.00;100.00;99239.81;5023008;28;20029;-66
2024/03/21 09:01:42;;;;;;;7.47;3.50;;;;;;;23.19;91.15;99233.78;5028648;28;20484;-66
2024/03/21 09:04:08;;;;;;;8.05;3.50;;;;;;;25.61;75.45;99226.91;5035785;28;20065;-67
2024/03/21 09:06:33;;;;;;;5.53;3.28;;;;;;;25.16;71.10;99225.38;5029725;28;20470;-65
2024/03/21 09:09:00;;;;;;;7.45;3.35;;;;;;;25.46;69.86;99221.50;5019347;28;20056;-67
2024/03/21 09:11:27;;;;;;;4.50;2.78;;;;;;;27.46;64.84;99220.59;5026960;28;20029;-67
2024/03/21 09:13:53;;;;;;;9.20;3.28;;;;;;;28.75;59.92;99213.31;5027457;28;20036;-67
2024/03/21 09:16:25;;;;;;;6.80;3.22;;;;;;;29.54;55.99;99218.34;5027286;28;20392;-68
2024/03/21 09:18:50;;;;;;;5.28;3.20;;;;;;;30.68;53.63;99220.47;5032836;28;20499;-68
2024/03/21 09:21:16;;;;;;;6.18;3.15;;;;;;;30.92;52.06;99210.81;5032993;28;20033;-67
2024/03/21 09:23:41;;;;;;;11.40;3.63;;;;;;;32.11;49.85;99223.25;5029980;28;20115;-67
2024/03/21 09:26:07;;;;;;;7.57;3.40;;;;;;;32.46;48.30;99221.09;5034813;28;20465;-66
2024/03/21 09:28:32;;;;;;;6.30;3.47;;;;;;;32.17;48.59;99226.66;5024317;28;20049;-66
2024/03/21 09:30:57;;;;;;;9.23;3.13;;;;;;;30.40;50.09;99233.06;5023589;28;20033;-67
2024/03/21 09:33:23;;;;;;;8.43;3.30;;;;;;;28.75;51.69;99241.16;5033461;28;20030;-67
2024/03/21 09:35:58;;;;;;;4.57;3.03;;;;;;;27.70;54.80;99242.66;5035856;28;20033;-68
2024/03/21 09:38:23;;;;;;;5.50;3.15;;;;;;;25.57;59.97;99254.38;5025314;28;20674;-68
2024/03/21 09:40:50;;;;;;;7.60;3.40;;;;;;;23.53;67.20;99245.09;5029074;28;20025;-66
2024/03/21 09:43:16;;;;;;;4.93;2.90;;;;;;;22.83;70.93;99247.50;5026377;28;20115;-66
2024/03/21 09:45:45;;;;;;;6.68;2.70;;;;;;;23.17;73.41;99252.56;5024771;28;20144;-66
2024/03/21 09:48:11;;;;;;;5.82;3.25;;;;;;;23.05;77.11;99239.00;5032209;28;20104;-66
2024/03/21 09:50:41;;;;;;;7.00;3.45;;;;;;;22.94;73.23;99253.88;5029649;28;20112;-66
2024/03/21 09:53:11;;;;;;;8.75;3.50;;;;;;;23.16;75.04;99253.66;5023191;28;20056;-66
2024/03/21 09:55:37;;;;;;;7.05;3.88;;;;;;;22.85;74.17;99261.06;5023394;28;20476;-66
2024/03/21 09:58:05;;;;;;;6.90;3.90;;;;;;;22.88;74.95;99266.84;5026228;28;20025;-66
2024/03/21 10:00:31;;;;;;;7.93;4.22;;;;;;;22.29;78.06;99262.50;5026487;28;20417;-65
2024/03/21 10:02:56;;;;;;;8.63;4.40;;;;;;;22.48;78.25;99260.13;5021139;28;20041;-65
2024/03/21 10:05:23;;;;;;;6.47;3.95;;;;;;;22.01;79.28;99254.66;5028368;28;20500;-64
2024/03/21 10:07:50;;;;;;;8.50;4.28;;;;;;;22.10;80.48;99266.81;5020494;28;20063;-65
2024/03/21 10:10:15;;;;;;;8.80;4.05;;;;;;;22.44;82.41;99253.47;5032257;28;20022;-65
2024/03/21 10:12:40;;;;;;;9.43;5.30;;;;;;;24.20;73.80;99262.38;5024307;28;20028;-65
2024/03/21 10:15:13;;;;;;;9.85;5.00;;;;;;;26.77;66.22;99259.13;5023291;28;20034;-65
2024/03/21 10:17:41;;;;;;;7.63;4.32;;;;;;;29.34;59.42;99250.34;5033533;28;20049;-66
2024/03/21 10:20:08;;;;;;;5.60;4.07;;;;;;;31.39;53.48;99247.31;5035942;28;20048;-67
2024/03/21 10:22:34;;;;;;;6.55;3.83;;;;;;;33.20;49.12;99240.34;5043915;28;20029;-66
2024/03/21 10:25:03;;;;;;;8.80;3.95;;;;;;;33.47;47.54;99258.59;5035103;28;20040;-67
2024/03/21 10:27:29;;;;;;;6.13;4.07;;;;;;;32.64;46.95;99255.41;5020704;28;20112;-67
2024/03/21 10:29:57;;;;;;;6.85;3.80;;;;;;;31.96;46.92;99257.38;5030873;28;20017;-66
2024/03/21 10:32:23;;;;;;;5.85;3.42;;;;;;;30.55;49.59;99254.94;5020653;28;20401;-67
2024/03/21 10:34:50;;;;;;;5.60;4.13;;;;;;;27.74;51.25;99265.09;5023434;28;20029;-66
2024/03/21 10:37:20;;;;;;;7.20;3.33;;;;;;;26.95;55.01;99263.03;5035716;28;20021;-66
2024/03/21 10:39:49;;;;;;;6.75;3.55;;;;;;;25.91;56.20;99267.38;5037162;28;20068;-65
2024/03/21 10:42:31;;;;;;;5.18;3.78;;;;;;;26.07;58.03;99272.75;5032390;28;20013;-66
2024/03/21 10:45:02;;;;;;;8.05;3.50;;;;;;;25.82;57.71;99263.56;5032793;28;20060;-66
2024/03/21 10:47:28;;;;;;;5.00;3.65;;;;;;;25.63;59.30;99268.19;5035716;28;20025;-67
2024/03/21 10:49:54;;;;;;;6.00;4.05;;;;;;;26.68;57.13;99263.72;5027912;28;20025;-66
2024/03/21 10:52:20;;;;;;;8.60;4.35;;;;;;;26.99;57.28;99271.63;5025962;28;20379;-65
2024/03/21 10:54:53;;;;;;;7.10;4.57;;;;;;;26.78;58.39;99266.34;5017622;28;20037;-66
2024/03/21 10:57:21;;;;;;;9.57;4.80;;;;;;;28.52;55.73;99268.91;5029942;28;20385;-66
2024/03/21 10:59:57;;;;;;;7.22;4.90;;;;;;;28.30;54.82;99266.84;5029589;28;20485;-66
2024/03/21 11:02:26;;;;;;;11.50;5.68;;;;;;;26.84;57.29;99270.69;5028679;28;20060;-67
2024/03/21 11:04:53;;;;;;;8.85;5.40;;;;;;;25.52;59.92;99278.53;5033637;28;20052;-66
2024/03/21 11:07:19;;;;;;;12.65;6.18;;;;;;;23.95;63.75;99276.28;5029919;28;20031;-67
2024/03/21 11:09:48;;;;;;;10.02;5.43;;;;;;;25.90;62.81;99276.00;5037797;28;20025;-66
2024/03/21 11:12:15;;;;;;;8.57;5.90;;;;;;;26.43;61.34;99273.97;5033794;28;20017;-68
2024/03/21 11:14:45;;;;;;;10.48;5.95;;;;;;;25.14;62.65;99284.59;5023628;28;20029;-67
2024/03/21 11:17:13;;;;;;;10.88;6.63;;;;;;;24.33;64.64;99282.25;5024052;28;20037;-67
2024/03/21 11:19:38;;;;;;;15.07;7.88;;;;;;;22.15;73.00;99288.88;5034628;28;20049;-67
2024/03/21 11:22:07;;;;;;;13.98;9.20;;;;;;;22.30;75.45;99280.72;5026380;28;20080;-68
2024/03/21 11:24:33;;;;;;;13.20;9.02;;;;;;;22.12;77.46;99291.34;5034802;28;20136;-67
2024/03/21 11:26:58;;;;;;;13.23;9.73;;;;;;;22.00;77.64;99284.09;5031642;28;20108;-67